Meriden, Minnesota
Current Conditions -  °F | °C
As of 9:35 PM on Wednesday 22 Oct 2014 (Local Time) from KACQ Reporting Station
Broken Clouds Broken Clouds  
Wind Chill: 54°   Ceiling: 8500
Heat Index: 54°   Visibility: 10mi
Dew Point: 36°   Wind: 12mph
Humidity: 51%   Direction: 190°S
Pressure: 30.1"   Gusts: 20mph
Location:  44.0806°N, 93.5062°W
Report Text: KACQ 230235Z AUTO 19010G17KT 10SM SCT065 SCT070 BKN085 12/02 A3010 RMK AO2
Loading
Personal Weather Stations






























Interactive Weather Map
Tropical Storm Tracking
New forecast layout! Learn more

10-Day Weather Forecast

Advertisements
Track Severe Weather on mobile